createdAt,value
2019-01-24T00:00:51.580Z,1004.91
2019-01-24T00:01:51.571Z,1004.86
2019-01-24T00:02:51.567Z,1004.89
2019-01-24T00:03:52.330Z,1004.92
2019-01-24T00:04:51.540Z,1004.92
2019-01-24T00:05:51.547Z,1004.92
2019-01-24T00:06:51.524Z,1004.96
2019-01-24T00:07:51.891Z,1004.94
2019-01-24T00:08:52.842Z,1004.96
2019-01-24T00:09:51.503Z,1004.96
2019-01-24T00:10:51.482Z,1004.94
2019-01-24T00:11:51.501Z,1004.94
2019-01-24T00:12:51.460Z,1004.95
2019-01-24T00:13:51.690Z,1004.97
2019-01-24T00:14:51.465Z,1005.00
2019-01-24T00:15:51.480Z,1004.99
2019-01-24T00:16:51.434Z,1005.02
2019-01-24T00:17:51.472Z,1005.07
2019-01-24T00:18:51.569Z,1005.06
2019-01-24T00:19:51.603Z,1005.06
2019-01-24T00:20:52.434Z,1005.03
2019-01-24T00:21:51.397Z,1005.07
2019-01-24T00:22:51.367Z,1005.09
2019-01-24T00:23:51.645Z,1005.11
2019-01-24T00:24:51.337Z,1005.11
2019-01-24T00:25:52.022Z,1005.11
2019-01-24T00:26:51.323Z,1005.14
2019-01-24T00:27:52.072Z,1005.16
2019-01-24T00:28:51.298Z,1005.14
2019-01-24T00:29:51.290Z,1005.18
2019-01-24T00:30:51.321Z,1005.13
2019-01-24T00:31:51.298Z,1005.18
2019-01-24T00:32:51.253Z,1005.16
2019-01-24T00:33:51.246Z,1005.14
2019-01-24T00:34:51.277Z,1005.18
2019-01-24T00:35:51.225Z,1005.16
2019-01-24T00:36:51.213Z,1005.18
2019-01-24T00:37:51.258Z,1005.22
2019-01-24T00:38:51.191Z,1005.21
2019-01-24T00:39:51.188Z,1005.20
2019-01-24T00:40:51.168Z,1005.22
2019-01-24T00:41:51.164Z,1005.17
2019-01-24T00:42:51.144Z,1005.20
2019-01-24T00:43:51.135Z,1005.17
2019-01-24T00:44:51.128Z,1005.22
2019-01-24T00:45:51.129Z,1005.26
2019-01-24T00:46:51.102Z,1005.24
2019-01-24T00:47:51.091Z,1005.23
2019-01-24T00:48:51.077Z,1005.26
2019-01-24T00:49:51.066Z,1005.27
2019-01-24T00:50:51.063Z,1005.26
2019-01-24T00:51:51.051Z,1005.24
2019-01-24T00:52:51.036Z,1005.28
2019-01-24T00:53:51.033Z,1005.31
2019-01-24T00:54:51.017Z,1005.30
2019-01-24T00:55:51.007Z,1005.28
2019-01-24T00:56:50.997Z,1005.37
2019-01-24T00:57:50.985Z,1005.39
2019-01-24T00:58:50.974Z,1005.38
2019-01-24T00:59:50.967Z,1005.39
2019-01-24T01:00:50.951Z,1005.41
2019-01-24T01:01:50.944Z,1005.42
2019-01-24T01:02:50.938Z,1005.41
2019-01-24T01:03:50.918Z,1005.38
2019-01-24T01:04:50.911Z,1005.40
2019-01-24T01:05:50.907Z,1005.40
2019-01-24T01:06:50.891Z,1005.39
2019-01-24T01:07:50.878Z,1005.39
2019-01-24T01:08:50.873Z,1005.41
2019-01-24T01:09:50.865Z,1005.42
2019-01-24T01:10:50.850Z,1005.35
2019-01-24T01:11:50.947Z,1005.37
2019-01-24T01:12:50.842Z,1005.37
2019-01-24T01:13:50.820Z,1005.38
2019-01-24T01:14:50.818Z,1005.38
2019-01-24T01:15:50.806Z,1005.38
2019-01-24T01:16:50.792Z,1005.37
2019-01-24T01:17:50.788Z,1005.42
2019-01-24T01:18:50.782Z,1005.38
2019-01-24T01:19:50.757Z,1005.40
2019-01-24T01:20:50.750Z,1005.48
2019-01-24T01:21:50.733Z,1005.51
2019-01-24T01:22:50.725Z,1005.51
2019-01-24T01:23:50.716Z,1005.49
2019-01-24T01:24:50.700Z,1005.56
2019-01-24T01:25:50.690Z,1005.58
2019-01-24T01:26:50.693Z,1005.58
2019-01-24T01:27:50.673Z,1005.64
2019-01-24T01:28:50.664Z,1005.63
2019-01-24T01:29:50.664Z,1005.57
2019-01-24T01:30:50.641Z,1005.64
2019-01-24T01:31:50.631Z,1005.61
2019-01-24T01:32:50.620Z,1005.63
2019-01-24T01:33:50.604Z,1005.62
2019-01-24T01:34:50.593Z,1005.60
2019-01-24T01:35:50.592Z,1005.64
2019-01-24T01:36:50.580Z,1005.55
2019-01-24T01:37:50.565Z,1005.55
2019-01-24T01:38:50.549Z,1005.56
2019-01-24T01:39:50.569Z,1005.61
2019-01-24T01:40:50.529Z,1005.58
2019-01-24T01:41:50.635Z,1005.56
2019-01-24T01:42:50.506Z,1005.55
2019-01-24T01:43:50.512Z,1005.57
2019-01-24T01:44:50.486Z,1005.57
2019-01-24T01:45:50.476Z,1005.56
2019-01-24T01:46:50.469Z,1005.56
2019-01-24T01:47:50.455Z,1005.62
2019-01-24T01:48:50.444Z,1005.61
2019-01-24T01:49:50.434Z,1005.65
2019-01-24T01:50:50.423Z,1005.61
2019-01-24T01:51:50.413Z,1005.64
2019-01-24T01:52:50.408Z,1005.65
2019-01-24T01:53:50.401Z,1005.63
2019-01-24T01:54:50.381Z,1005.64
2019-01-24T01:55:50.380Z,1005.66
2019-01-24T01:56:50.362Z,1005.67
2019-01-24T01:57:50.350Z,1005.63
2019-01-24T01:58:50.338Z,1005.65
2019-01-24T01:59:50.332Z,1005.65
2019-01-24T02:00:50.317Z,1005.67
2019-01-24T02:01:50.308Z,1005.68
2019-01-24T02:02:50.300Z,1005.65
2019-01-24T02:03:50.288Z,1005.65
2019-01-24T02:04:50.275Z,1005.63
2019-01-24T02:05:50.271Z,1005.62
2019-01-24T02:06:50.255Z,1005.62
2019-01-24T02:07:50.249Z,1005.67
2019-01-24T02:08:50.233Z,1005.69
2019-01-24T02:09:50.226Z,1005.66
2019-01-24T02:10:50.213Z,1005.67
2019-01-24T02:11:50.211Z,1005.63
2019-01-24T02:12:50.190Z,1005.66
2019-01-24T02:13:50.195Z,1005.66
2019-01-24T02:14:50.171Z,1005.68
2019-01-24T02:15:50.167Z,1005.66
2019-01-24T02:16:50.156Z,1005.68
2019-01-24T02:17:50.152Z,1005.69
2019-01-24T02:18:50.133Z,1005.65
2019-01-24T02:19:50.125Z,1005.63
2019-01-24T02:20:50.106Z,1005.63
2019-01-24T02:21:50.095Z,1005.64
2019-01-24T02:22:50.091Z,1005.61
2019-01-24T02:23:50.086Z,1005.65
2019-01-24T02:24:50.067Z,1005.60
2019-01-24T02:25:50.062Z,1005.62
2019-01-24T02:26:50.044Z,1005.61
2019-01-24T02:27:50.034Z,1005.57
2019-01-24T02:28:50.026Z,1005.58
2019-01-24T02:29:50.012Z,1005.61
2019-01-24T02:30:50.104Z,1005.61
2019-01-24T02:31:50.000Z,1005.58
2019-01-24T02:32:50.082Z,1005.59
2019-01-24T02:33:49.978Z,1005.62
2019-01-24T02:34:50.003Z,1005.58
2019-01-24T02:35:49.956Z,1005.62
2019-01-24T02:36:49.937Z,1005.66
2019-01-24T02:37:49.932Z,1005.63
2019-01-24T02:38:49.917Z,1005.67
2019-01-24T02:39:49.906Z,1005.63
2019-01-24T02:40:49.897Z,1005.66
2019-01-24T02:41:49.899Z,1005.64
2019-01-24T02:42:49.877Z,1005.64
2019-01-24T02:43:49.871Z,1005.63
2019-01-24T02:44:49.852Z,1005.63
2019-01-24T02:45:49.874Z,1005.68
2019-01-24T02:46:49.831Z,1005.66
2019-01-24T02:47:49.822Z,1005.70
2019-01-24T02:48:49.817Z,1005.67
2019-01-24T02:49:49.817Z,1005.70
2019-01-24T02:50:49.794Z,1005.77
2019-01-24T02:51:49.783Z,1005.76
2019-01-24T02:52:49.803Z,1005.83
2019-01-24T02:53:49.766Z,1005.84
2019-01-24T02:54:49.753Z,1005.79
2019-01-24T02:55:49.737Z,1005.79
2019-01-24T02:56:49.724Z,1005.80
2019-01-24T02:57:49.714Z,1005.81
2019-01-24T02:58:49.703Z,1005.79
2019-01-24T02:59:49.700Z,1005.83
2019-01-24T03:00:49.682Z,1005.85
2019-01-24T03:01:49.674Z,1005.78
2019-01-24T03:02:49.664Z,1005.83
2019-01-24T03:03:49.652Z,1005.81
2019-01-24T03:04:49.642Z,1005.76
2019-01-24T03:05:49.649Z,1005.80
2019-01-24T03:06:49.638Z,1005.78
2019-01-24T03:07:49.611Z,1005.78
2019-01-24T03:08:49.597Z,1005.80
2019-01-24T03:09:49.588Z,1005.77
2019-01-24T03:10:49.577Z,1005.78
2019-01-24T03:11:49.569Z,1005.76
2019-01-24T03:12:49.556Z,1005.70
2019-01-24T03:13:49.547Z,1005.76
2019-01-24T03:14:49.534Z,1005.73
2019-01-24T03:15:49.547Z,1005.73
2019-01-24T03:16:49.514Z,1005.67
2019-01-24T03:17:49.629Z,1005.66
2019-01-24T03:18:49.498Z,1005.69
2019-01-24T03:19:49.484Z,1005.69
2019-01-24T03:20:49.472Z,1005.69
2019-01-24T03:21:49.464Z,1005.69
2019-01-24T03:22:49.451Z,1005.69
2019-01-24T03:23:49.441Z,1005.70
2019-01-24T03:24:49.430Z,1005.77
2019-01-24T03:25:49.418Z,1005.75
2019-01-24T03:26:49.414Z,1005.72
2019-01-24T03:27:49.399Z,1005.71
2019-01-24T03:28:49.394Z,1005.77
2019-01-24T03:29:49.388Z,1005.72
2019-01-24T03:30:49.388Z,1005.74
2019-01-24T03:31:49.360Z,1005.74
2019-01-24T03:32:49.352Z,1005.77
2019-01-24T03:33:49.333Z,1005.79
2019-01-24T03:34:49.328Z,1005.75
2019-01-24T03:35:49.317Z,1005.77
2019-01-24T03:36:49.308Z,1005.78
2019-01-24T03:37:49.298Z,1005.80
2019-01-24T03:38:49.285Z,1005.77
2019-01-24T03:39:49.273Z,1005.75
2019-01-24T03:40:49.271Z,1005.78
2019-01-24T03:41:49.258Z,1005.80
2019-01-24T03:42:49.254Z,1005.79
2019-01-24T03:43:49.232Z,1005.88
2019-01-24T03:44:49.224Z,1005.81
2019-01-24T03:45:49.213Z,1005.84
2019-01-24T03:46:49.205Z,1005.88
2019-01-24T03:47:49.189Z,1005.90
2019-01-24T03:48:49.193Z,1005.94
2019-01-24T03:49:49.163Z,1005.95
2019-01-24T03:50:49.189Z,1005.94
2019-01-24T03:51:49.145Z,1006.00
2019-01-24T03:52:49.143Z,1006.04
2019-01-24T03:53:49.124Z,1005.99
2019-01-24T03:54:49.122Z,1006.02
2019-01-24T03:55:49.106Z,1006.02
2019-01-24T03:56:49.096Z,1006.00
2019-01-24T03:57:49.087Z,1006.07
2019-01-24T03:58:49.082Z,1006.06
2019-01-24T03:59:49.059Z,1006.05
2019-01-24T04:00:49.061Z,1006.01
2019-01-24T04:01:49.036Z,1006.05
2019-01-24T04:02:49.031Z,1006.05
2019-01-24T04:03:49.017Z,1006.08
2019-01-24T04:04:49.011Z,1006.06
2019-01-24T04:05:48.997Z,1006.06
2019-01-24T04:06:49.000Z,1006.10
2019-01-24T04:07:48.980Z,1006.11
2019-01-24T04:08:48.963Z,1006.10
2019-01-24T04:09:48.955Z,1006.08
2019-01-24T04:10:48.941Z,1006.09
2019-01-24T04:11:48.937Z,1006.11
2019-01-24T04:12:48.941Z,1006.10
2019-01-24T04:13:48.913Z,1006.11
2019-01-24T04:14:48.911Z,1006.09
2019-01-24T04:15:48.889Z,1006.14
2019-01-24T04:16:48.879Z,1006.13
2019-01-24T04:17:48.871Z,1006.14
2019-01-24T04:18:48.858Z,1006.11
2019-01-24T04:19:48.847Z,1006.07
2019-01-24T04:20:48.838Z,1006.09
2019-01-24T04:21:48.834Z,1006.13
2019-01-24T04:22:48.824Z,1006.13
2019-01-24T04:23:48.933Z,1006.09
2019-01-24T04:24:48.809Z,1006.11
2019-01-24T04:25:48.793Z,1006.13
2019-01-24T04:26:48.789Z,1006.10
2019-01-24T04:27:48.772Z,1006.06
2019-01-24T04:28:48.771Z,1006.09
2019-01-24T04:29:48.747Z,1006.11
2019-01-24T04:30:48.739Z,1006.11
2019-01-24T04:31:48.725Z,1006.11
2019-01-24T04:32:48.710Z,1006.07
2019-01-24T04:33:48.704Z,1006.11
2019-01-24T04:34:48.692Z,1006.13
2019-01-24T04:35:48.682Z,1006.16
2019-01-24T04:36:48.692Z,1006.13
2019-01-24T04:37:48.658Z,1006.16
2019-01-24T04:38:48.650Z,1006.14
2019-01-24T04:39:48.640Z,1006.16
2019-01-24T04:40:48.629Z,1006.16
2019-01-24T04:41:48.622Z,1006.18
2019-01-24T04:42:48.604Z,1006.18
2019-01-24T04:43:48.596Z,1006.20
2019-01-24T04:44:48.584Z,1006.16
2019-01-24T04:45:48.583Z,1006.26
2019-01-24T04:46:48.565Z,1006.21
2019-01-24T04:47:48.558Z,1006.23
2019-01-24T04:48:48.541Z,1006.28
2019-01-24T04:49:48.531Z,1006.29
2019-01-24T04:50:48.531Z,1006.28
2019-01-24T04:51:48.520Z,1006.27
2019-01-24T04:52:48.554Z,1006.29
2019-01-24T04:53:48.496Z,1006.30
2019-01-24T04:54:48.485Z,1006.30
2019-01-24T04:55:48.472Z,1006.34
2019-01-24T04:56:48.462Z,1006.32
2019-01-24T04:57:48.446Z,1006.29
2019-01-24T04:58:48.442Z,1006.37
2019-01-24T04:59:48.429Z,1006.31
2019-01-24T05:00:48.414Z,1006.37
2019-01-24T05:01:48.404Z,1006.38
2019-01-24T05:02:48.394Z,1006.34
2019-01-24T05:03:48.383Z,1006.39
2019-01-24T05:04:48.372Z,1006.39
2019-01-24T05:05:48.367Z,1006.39
2019-01-24T05:06:48.360Z,1006.42
2019-01-24T05:07:48.343Z,1006.47
2019-01-24T05:08:48.328Z,1006.48
2019-01-24T05:09:48.328Z,1006.46
2019-01-24T05:10:48.309Z,1006.49
2019-01-24T05:11:48.311Z,1006.46
2019-01-24T05:12:48.292Z,1006.49
2019-01-24T05:13:48.278Z,1006.48
2019-01-24T05:14:48.289Z,1006.52
2019-01-24T05:15:48.279Z,1006.49
2019-01-24T05:16:48.245Z,1006.50
2019-01-24T05:17:48.261Z,1006.56
2019-01-24T05:18:48.227Z,1006.52
2019-01-24T05:19:48.217Z,1006.54
2019-01-24T05:20:48.207Z,1006.48
2019-01-24T05:21:48.213Z,1006.44
2019-01-24T05:22:48.181Z,1006.48
2019-01-24T05:23:48.178Z,1006.44
2019-01-24T05:24:48.160Z,1006.50
2019-01-24T05:25:48.153Z,1006.49
2019-01-24T05:26:48.140Z,1006.50
2019-01-24T05:27:48.152Z,1006.52
2019-01-24T05:28:48.125Z,1006.50
2019-01-24T05:29:48.118Z,1006.47
2019-01-24T05:30:48.105Z,1006.58
2019-01-24T05:31:48.092Z,1006.57
2019-01-24T05:32:48.098Z,1006.55
2019-01-24T05:33:48.074Z,1006.53
2019-01-24T05:34:48.081Z,1006.56
2019-01-24T05:35:48.056Z,1006.52
2019-01-24T05:36:48.042Z,1006.52
2019-01-24T05:37:48.030Z,1006.60
2019-01-24T05:38:48.018Z,1006.62
2019-01-24T05:39:48.012Z,1006.62
2019-01-24T05:40:47.996Z,1006.63
2019-01-24T05:41:47.991Z,1006.60
2019-01-24T05:42:47.972Z,1006.62
2019-01-24T05:43:47.962Z,1006.60
2019-01-24T05:44:47.948Z,1006.65
2019-01-24T05:45:47.942Z,1006.65
2019-01-24T05:46:47.927Z,1006.65
2019-01-24T05:47:47.917Z,1006.65
2019-01-24T05:48:47.907Z,1006.66
2019-01-24T05:49:47.900Z,1006.68
2019-01-24T05:50:47.954Z,1006.70
2019-01-24T05:51:47.882Z,1006.74
2019-01-24T05:52:47.868Z,1006.68
2019-01-24T05:53:47.867Z,1006.66
2019-01-24T05:54:47.857Z,1006.71
2019-01-24T05:55:47.843Z,1006.68
2019-01-24T05:56:47.829Z,1006.65
2019-01-24T05:57:47.822Z,1006.65
2019-01-24T05:58:47.809Z,1006.65
2019-01-24T05:59:47.821Z,1006.72
2019-01-24T06:00:47.793Z,1006.72
2019-01-24T06:01:47.779Z,1006.72
2019-01-24T06:02:47.766Z,1006.73
2019-01-24T06:03:47.757Z,1006.75
2019-01-24T06:04:47.745Z,1006.75
2019-01-24T06:05:47.729Z,1006.77
2019-01-24T06:06:47.718Z,1006.75
2019-01-24T06:07:47.715Z,1006.77
2019-01-24T06:08:47.702Z,1006.75
2019-01-24T06:09:47.692Z,1006.78
2019-01-24T06:10:47.684Z,1006.79
2019-01-24T06:11:47.667Z,1006.78
2019-01-24T06:12:47.662Z,1006.84
2019-01-24T06:13:47.660Z,1006.91
2019-01-24T06:14:47.643Z,1006.95
2019-01-24T06:15:47.700Z,1006.92
2019-01-24T06:16:47.616Z,1006.94
2019-01-24T06:17:47.629Z,1006.98
2019-01-24T06:18:47.601Z,1006.95
2019-01-24T06:19:47.980Z,1006.98
2019-01-24T06:20:47.641Z,1007.00
2019-01-24T06:21:47.841Z,1006.97
2019-01-24T06:22:47.555Z,1007.05
2019-01-24T06:23:47.550Z,1007.01
2019-01-24T06:24:47.541Z,1006.96
2019-01-24T06:25:47.519Z,1006.99
2019-01-24T06:26:47.514Z,1006.95
2019-01-24T06:27:47.499Z,1007.02
2019-01-24T06:28:47.491Z,1007.00
2019-01-24T06:29:47.488Z,1007.02
2019-01-24T06:30:47.477Z,1007.04
2019-01-24T06:31:47.456Z,1007.12
2019-01-24T06:32:47.459Z,1007.08
2019-01-24T06:33:47.435Z,1007.04
2019-01-24T06:34:47.432Z,1007.07
2019-01-24T06:35:48.832Z,1007.12
2019-01-24T06:36:47.426Z,1007.16
2019-01-24T06:37:47.393Z,1007.13
2019-01-24T06:38:47.434Z,1007.13
2019-01-24T06:39:47.371Z,1007.13
2019-01-24T06:40:47.367Z,1007.20
2019-01-24T06:41:47.354Z,1007.15
2019-01-24T06:42:47.344Z,1007.14
2019-01-24T06:43:47.329Z,1007.17
2019-01-24T06:44:47.322Z,1007.16
2019-01-24T06:45:47.309Z,1007.17
2019-01-24T06:46:47.303Z,1007.17
2019-01-24T06:47:47.289Z,1007.20
2019-01-24T06:48:47.285Z,1007.21
2019-01-24T06:49:47.266Z,1007.22
2019-01-24T06:50:47.260Z,1007.21
2019-01-24T06:51:47.244Z,1007.23
2019-01-24T06:52:47.240Z,1007.23
2019-01-24T06:53:47.233Z,1007.25
2019-01-24T06:54:47.220Z,1007.19
2019-01-24T06:55:47.203Z,1007.22
2019-01-24T06:56:47.195Z,1007.21
2019-01-24T06:57:47.186Z,1007.26
2019-01-24T06:58:47.175Z,1007.23
2019-01-24T06:59:47.166Z,1007.25
2019-01-24T07:00:47.158Z,1007.28
2019-01-24T07:01:47.248Z,1007.26
2019-01-24T07:02:47.129Z,1007.26
2019-01-24T07:03:47.130Z,1007.29
2019-01-24T07:04:47.111Z,1007.28
2019-01-24T07:05:47.105Z,1007.31
2019-01-24T07:06:47.090Z,1007.32
2019-01-24T07:07:47.076Z,1007.37
2019-01-24T07:08:47.074Z,1007.36
2019-01-24T07:09:47.056Z,1007.38
2019-01-24T07:10:47.046Z,1007.44
2019-01-24T07:11:47.039Z,1007.45
2019-01-24T07:12:47.032Z,1007.48
2019-01-24T07:13:47.012Z,1007.48
2019-01-24T07:14:47.001Z,1007.47
2019-01-24T07:15:46.990Z,1007.46
2019-01-24T07:16:46.978Z,1007.49
2019-01-24T07:17:46.975Z,1007.50
2019-01-24T07:18:46.955Z,1007.52
2019-01-24T07:19:46.944Z,1007.57
2019-01-24T07:20:46.948Z,1007.55
2019-01-24T07:21:46.924Z,1007.58
2019-01-24T07:22:47.019Z,1007.55
2019-01-24T07:23:46.901Z,1007.53
2019-01-24T07:24:46.892Z,1007.55
2019-01-24T07:25:46.880Z,1007.54
2019-01-24T07:26:46.873Z,1007.54
2019-01-24T07:27:46.871Z,1007.51
2019-01-24T07:28:46.864Z,1007.54
2019-01-24T07:29:46.837Z,1007.55
2019-01-24T07:30:46.842Z,1007.53
2019-01-24T07:31:46.825Z,1007.56
2019-01-24T07:32:46.814Z,1007.55
2019-01-24T07:33:46.802Z,1007.55
2019-01-24T07:34:46.787Z,1007.62
2019-01-24T07:35:46.777Z,1007.64
2019-01-24T07:36:46.768Z,1007.63
2019-01-24T07:37:46.754Z,1007.64
2019-01-24T07:38:46.749Z,1007.69
2019-01-24T07:39:46.739Z,1007.67
2019-01-24T07:40:46.723Z,1007.68
2019-01-24T07:41:46.715Z,1007.65
2019-01-24T07:42:46.707Z,1007.70
2019-01-24T07:43:47.226Z,1007.70
2019-01-24T07:44:46.682Z,1007.75
2019-01-24T07:45:46.669Z,1007.73
2019-01-24T07:46:46.670Z,1007.75
2019-01-24T07:47:46.655Z,1007.76
2019-01-24T07:48:46.640Z,1007.78
2019-01-24T07:49:46.627Z,1007.78
2019-01-24T07:50:46.635Z,1007.75
2019-01-24T07:51:46.616Z,1007.82
2019-01-24T07:52:46.601Z,1007.80
2019-01-24T07:53:46.584Z,1007.76
2019-01-24T07:54:46.574Z,1007.77
2019-01-24T07:55:46.566Z,1007.77
2019-01-24T07:56:46.558Z,1007.79
2019-01-24T07:57:46.605Z,1007.80
2019-01-24T07:58:46.532Z,1007.84
2019-01-24T07:59:46.526Z,1007.84
2019-01-24T08:00:46.511Z,1007.81
2019-01-24T08:01:46.504Z,1007.80
2019-01-24T08:02:46.499Z,1007.80
2019-01-24T08:03:46.482Z,1007.76
2019-01-24T08:04:46.470Z,1007.78
2019-01-24T08:05:46.459Z,1007.82
2019-01-24T08:06:46.447Z,1007.78
2019-01-24T08:07:46.435Z,1007.81
2019-01-24T08:08:46.433Z,1007.78
2019-01-24T08:09:46.418Z,1007.81
2019-01-24T08:10:46.405Z,1007.78
2019-01-24T08:11:46.398Z,1007.77
2019-01-24T08:12:46.383Z,1007.75
2019-01-24T08:13:46.373Z,1007.81
2019-01-24T08:14:46.369Z,1007.81
2019-01-24T08:15:46.414Z,1007.84
2019-01-24T08:16:46.344Z,1007.77
2019-01-24T08:17:46.379Z,1007.79
2019-01-24T08:18:46.328Z,1007.80
2019-01-24T08:19:46.309Z,1007.83
2019-01-24T08:20:46.300Z,1007.86
2019-01-24T08:21:46.296Z,1007.83
2019-01-24T08:22:46.285Z,1007.79
2019-01-24T08:23:46.268Z,1007.77
2019-01-24T08:24:46.260Z,1007.82
2019-01-24T08:25:46.249Z,1007.81
2019-01-24T08:26:46.238Z,1007.83
2019-01-24T08:27:46.229Z,1007.86
2019-01-24T08:28:46.219Z,1007.88
2019-01-24T08:29:46.205Z,1007.91
2019-01-24T08:30:46.195Z,1007.94
2019-01-24T08:31:46.184Z,1007.96
2019-01-24T08:32:46.177Z,1007.98
2019-01-24T08:33:46.162Z,1007.99
2019-01-24T08:34:46.160Z,1007.96
2019-01-24T08:35:46.141Z,1008.00
2019-01-24T08:36:46.128Z,1007.97
2019-01-24T08:37:46.119Z,1008.00
2019-01-24T08:38:46.193Z,1007.96
2019-01-24T08:39:46.097Z,1008.00
2019-01-24T08:40:46.086Z,1007.99
2019-01-24T08:41:46.077Z,1008.01
2019-01-24T08:42:46.065Z,1008.03
2019-01-24T08:43:46.093Z,1008.05
2019-01-24T08:44:46.050Z,1008.10
2019-01-24T08:45:46.054Z,1008.08
2019-01-24T08:46:46.024Z,1008.09
2019-01-24T08:47:46.018Z,1008.06
2019-01-24T08:48:46.002Z,1008.08
2019-01-24T08:49:45.992Z,1008.07
2019-01-24T08:50:45.985Z,1008.10
2019-01-24T08:51:45.971Z,1008.11
2019-01-24T08:52:45.961Z,1008.09
2019-01-24T08:53:45.951Z,1008.12
2019-01-24T08:54:45.943Z,1008.11
2019-01-24T08:55:45.935Z,1008.07
2019-01-24T08:56:45.980Z,1008.10
2019-01-24T08:57:45.955Z,1008.07
2019-01-24T08:58:45.896Z,1008.10
2019-01-24T08:59:45.885Z,1008.04
2019-01-24T09:00:45.879Z,1008.07
2019-01-24T09:01:45.864Z,1008.06
2019-01-24T09:02:45.873Z,1008.04
2019-01-24T09:03:45.844Z,1007.99
2019-01-24T09:04:45.831Z,1007.98
2019-01-24T09:05:45.823Z,1008.03
2019-01-24T09:06:45.818Z,1008.04
2019-01-24T09:07:45.804Z,1007.99
2019-01-24T09:08:45.803Z,1008.03
2019-01-24T09:09:45.786Z,1008.06
2019-01-24T09:10:45.778Z,1008.08
2019-01-24T09:11:45.764Z,1008.06
2019-01-24T09:12:45.765Z,1008.06
2019-01-24T09:13:45.747Z,1008.08
2019-01-24T09:14:45.809Z,1008.02
2019-01-24T09:15:45.795Z,1008.05
2019-01-24T09:16:45.713Z,1008.04
2019-01-24T09:17:45.702Z,1008.07
2019-01-24T09:18:45.694Z,1008.03
2019-01-24T09:19:45.683Z,1008.07
2019-01-24T09:20:45.747Z,1008.08
2019-01-24T09:21:45.657Z,1008.09
2019-01-24T09:22:45.657Z,1008.07
2019-01-24T09:23:45.641Z,1008.07
2019-01-24T09:24:45.630Z,1008.05
2019-01-24T09:25:45.623Z,1008.07
2019-01-24T09:26:45.614Z,1008.11
2019-01-24T09:27:45.595Z,1008.13
2019-01-24T09:28:45.581Z,1008.08
2019-01-24T09:29:45.572Z,1008.08
2019-01-24T09:30:45.560Z,1008.08
2019-01-24T09:31:45.626Z,1008.12
2019-01-24T09:32:45.545Z,1008.08
2019-01-24T09:33:45.526Z,1008.10
2019-01-24T09:34:45.516Z,1008.13
2019-01-24T09:35:45.508Z,1008.15
2019-01-24T09:36:45.545Z,1008.13
2019-01-24T09:37:45.499Z,1008.16
2019-01-24T09:38:45.477Z,1008.15
2019-01-24T09:39:45.465Z,1008.13
2019-01-24T09:40:45.452Z,1008.15
2019-01-24T09:41:45.443Z,1008.19
2019-01-24T09:42:45.432Z,1008.20
2019-01-24T09:43:45.425Z,1008.26
2019-01-24T09:44:45.411Z,1008.23
2019-01-24T09:45:45.422Z,1008.27
2019-01-24T09:46:45.388Z,1008.24
2019-01-24T09:47:45.377Z,1008.19
2019-01-24T09:48:45.375Z,1008.22
2019-01-24T09:49:45.357Z,1008.22
2019-01-24T09:50:45.346Z,1008.25
2019-01-24T09:51:45.339Z,1008.23
2019-01-24T09:52:45.325Z,1008.22
2019-01-24T09:53:45.316Z,1008.25
2019-01-24T09:54:45.309Z,1008.26
2019-01-24T09:55:45.294Z,1008.30
2019-01-24T09:56:45.282Z,1008.27
2019-01-24T09:57:45.275Z,1008.31
2019-01-24T09:58:45.264Z,1008.29
2019-01-24T09:59:45.253Z,1008.30
2019-01-24T10:00:45.250Z,1008.34
2019-01-24T10:01:45.258Z,1008.36
2019-01-24T10:02:45.228Z,1008.31
2019-01-24T10:03:45.217Z,1008.30
2019-01-24T10:04:45.202Z,1008.28
2019-01-24T10:05:45.188Z,1008.28
2019-01-24T10:06:45.183Z,1008.28
2019-01-24T10:07:45.170Z,1008.25
2019-01-24T10:08:45.160Z,1008.27
2019-01-24T10:09:45.147Z,1008.27
2019-01-24T10:10:45.137Z,1008.26
2019-01-24T10:11:45.131Z,1008.28
2019-01-24T10:12:45.126Z,1008.27
2019-01-24T10:13:45.140Z,1008.28
2019-01-24T10:14:45.103Z,1008.31
2019-01-24T10:15:45.092Z,1008.31
2019-01-24T10:16:45.079Z,1008.30
2019-01-24T10:17:45.067Z,1008.32
2019-01-24T10:18:45.063Z,1008.33
2019-01-24T10:19:45.045Z,1008.36
2019-01-24T10:20:45.032Z,1008.32
2019-01-24T10:21:45.025Z,1008.34
2019-01-24T10:22:45.015Z,1008.36
2019-01-24T10:23:44.999Z,1008.35
2019-01-24T10:24:44.995Z,1008.38
2019-01-24T10:25:44.987Z,1008.37
2019-01-24T10:26:44.970Z,1008.37
2019-01-24T10:27:44.958Z,1008.37
2019-01-24T10:28:44.947Z,1008.41
2019-01-24T10:29:44.941Z,1008.38
2019-01-24T10:30:44.934Z,1008.40
2019-01-24T10:31:46.402Z,1008.37
2019-01-24T10:32:44.904Z,1008.39
2019-01-24T10:33:44.893Z,1008.39
2019-01-24T10:34:44.884Z,1008.43
2019-01-24T10:35:44.874Z,1008.45
2019-01-24T10:36:44.863Z,1008.43
2019-01-24T10:37:44.856Z,1008.45
2019-01-24T10:38:44.843Z,1008.47
2019-01-24T10:39:44.831Z,1008.47
2019-01-24T10:40:44.819Z,1008.46
2019-01-24T10:41:44.816Z,1008.45
2019-01-24T10:42:44.810Z,1008.47
2019-01-24T10:43:44.788Z,1008.50
2019-01-24T10:44:44.779Z,1008.49
2019-01-24T10:45:44.772Z,1008.49
2019-01-24T10:46:44.755Z,1008.53
2019-01-24T10:47:44.748Z,1008.46
2019-01-24T10:48:44.740Z,1008.51
2019-01-24T10:49:44.748Z,1008.52
2019-01-24T10:50:44.716Z,1008.50
2019-01-24T10:51:44.703Z,1008.50
2019-01-24T10:52:44.693Z,1008.50
2019-01-24T10:53:44.685Z,1008.47
2019-01-24T10:54:44.680Z,1008.53
2019-01-24T10:55:44.661Z,1008.54
2019-01-24T10:56:44.653Z,1008.49
2019-01-24T10:57:44.644Z,1008.44
2019-01-24T10:58:44.633Z,1008.45
2019-01-24T10:59:44.627Z,1008.43
2019-01-24T11:00:44.619Z,1008.50
2019-01-24T11:01:44.599Z,1008.48
2019-01-24T11:02:44.590Z,1008.48
2019-01-24T11:03:44.576Z,1008.49
2019-01-24T11:04:44.568Z,1008.59
2019-01-24T11:05:44.557Z,1008.62
2019-01-24T11:06:49.989Z,1008.58
2019-01-24T11:07:45.532Z,1008.55
2019-01-24T11:08:44.523Z,1008.56
2019-01-24T11:09:44.513Z,1008.52
2019-01-24T11:10:44.514Z,1008.54
2019-01-24T11:11:44.492Z,1008.58
2019-01-24T11:12:44.485Z,1008.60
2019-01-24T11:13:44.471Z,1008.58
2019-01-24T11:14:44.459Z,1008.52
2019-01-24T11:15:44.453Z,1008.52
2019-01-24T11:16:44.446Z,1008.44
2019-01-24T11:17:44.505Z,1008.49
2019-01-24T11:18:44.436Z,1008.51
2019-01-24T11:19:44.438Z,1008.49
2019-01-24T11:20:44.402Z,1008.49
2019-01-24T11:21:44.391Z,1008.59
2019-01-24T11:22:44.384Z,1008.60
2019-01-24T11:23:44.368Z,1008.58
2019-01-24T11:24:44.365Z,1008.60
2019-01-24T11:25:44.560Z,1008.58
2019-01-24T11:26:44.341Z,1008.57
2019-01-24T11:27:44.328Z,1008.51
2019-01-24T11:28:44.324Z,1008.57
2019-01-24T11:29:44.308Z,1008.57
2019-01-24T11:30:44.303Z,1008.58
2019-01-24T11:31:44.285Z,1008.58
2019-01-24T11:32:44.310Z,1008.57
2019-01-24T11:33:44.435Z,1008.57
2019-01-24T11:34:44.271Z,1008.61
2019-01-24T11:35:44.245Z,1008.60
2019-01-24T11:36:44.434Z,1008.59
2019-01-24T11:37:44.444Z,1008.59
2019-01-24T11:38:44.211Z,1008.55
2019-01-24T11:39:44.206Z,1008.58
2019-01-24T11:40:44.286Z,1008.56
2019-01-24T11:41:44.180Z,1008.55
2019-01-24T11:42:44.175Z,1008.55
2019-01-24T11:43:44.346Z,1008.56
2019-01-24T11:44:44.163Z,1008.62
2019-01-24T11:45:44.137Z,1008.53
2019-01-24T11:46:44.139Z,1008.49
2019-01-24T11:47:44.122Z,1008.56
2019-01-24T11:48:44.115Z,1008.57
2019-01-24T11:49:44.096Z,1008.51
2019-01-24T11:50:44.174Z,1008.58
2019-01-24T11:51:44.076Z,1008.61
2019-01-24T11:52:44.073Z,1008.61
2019-01-24T11:53:44.054Z,1008.63
2019-01-24T11:54:44.050Z,1008.61
2019-01-24T11:55:44.039Z,1008.57
2019-01-24T11:56:44.026Z,1008.59
2019-01-24T11:57:44.031Z,1008.58
2019-01-24T11:58:44.008Z,1008.59
2019-01-24T11:59:43.991Z,1008.62
2019-01-24T12:00:44.058Z,1008.59
2019-01-24T12:01:43.974Z,1008.62
2019-01-24T12:02:43.958Z,1008.60
2019-01-24T12:03:43.954Z,1008.62
2019-01-24T12:04:43.953Z,1008.62
2019-01-24T12:05:43.931Z,1008.61